createdAt,value
2018-09-23T00:00:21.606Z,1002.83
2018-09-23T00:01:21.629Z,1002.86
2018-09-23T00:02:21.640Z,1002.81
2018-09-23T00:03:21.660Z,1002.80
2018-09-23T00:04:21.677Z,1002.81
2018-09-23T00:05:21.690Z,1002.82
2018-09-23T00:06:21.711Z,1002.78
2018-09-23T00:07:21.725Z,1002.75
2018-09-23T00:08:21.749Z,1002.74
2018-09-23T00:09:21.765Z,1002.74
2018-09-23T00:10:21.780Z,1002.72
2018-09-23T00:11:21.798Z,1002.71
2018-09-23T00:12:21.816Z,1002.74
2018-09-23T00:13:21.833Z,1002.74
2018-09-23T00:14:21.856Z,1002.70
2018-09-23T00:15:21.868Z,1002.70
2018-09-23T00:16:21.897Z,1002.72
2018-09-23T00:17:21.904Z,1002.69
2018-09-23T00:18:21.925Z,1002.72
2018-09-23T00:19:21.934Z,1002.72
2018-09-23T00:20:21.954Z,1002.70
2018-09-23T00:21:21.971Z,1002.66
2018-09-23T00:22:22.002Z,1002.63
2018-09-23T00:23:22.005Z,1002.61
2018-09-23T00:24:22.029Z,1002.60
2018-09-23T00:25:22.042Z,1002.56
2018-09-23T00:26:22.059Z,1002.55
2018-09-23T00:27:22.077Z,1002.54
2018-09-23T00:28:22.102Z,1002.53
2018-09-23T00:29:22.113Z,1002.59
2018-09-23T00:30:22.131Z,1002.54
2018-09-23T00:31:22.146Z,1002.48
2018-09-23T00:32:22.161Z,1002.50
2018-09-23T00:33:22.185Z,1002.49
2018-09-23T00:34:22.199Z,1002.47
2018-09-23T00:35:22.216Z,1002.38
2018-09-23T00:36:22.235Z,1002.36
2018-09-23T00:37:22.250Z,1002.30
2018-09-23T00:38:22.269Z,1002.28
2018-09-23T00:39:22.296Z,1002.22
2018-09-23T00:40:22.305Z,1002.22
2018-09-23T00:41:22.318Z,1002.18
2018-09-23T00:42:22.338Z,1002.17
2018-09-23T00:43:22.355Z,1002.16
2018-09-23T00:44:22.372Z,1002.17
2018-09-23T00:45:22.391Z,1002.17
2018-09-23T00:46:22.410Z,1002.15
2018-09-23T00:47:22.428Z,1002.20
2018-09-23T00:48:22.444Z,1002.14
2018-09-23T00:49:22.458Z,1002.10
2018-09-23T00:50:22.477Z,1002.08
2018-09-23T00:51:22.493Z,1002.12
2018-09-23T00:52:22.511Z,1002.10
2018-09-23T00:53:22.533Z,1002.06
2018-09-23T00:54:22.550Z,1002.03
2018-09-23T00:55:22.565Z,1002.07
2018-09-23T00:56:22.583Z,1002.04
2018-09-23T00:57:22.601Z,1001.99
2018-09-23T00:58:22.618Z,1001.93
2018-09-23T00:59:22.630Z,1001.95
2018-09-23T01:00:22.652Z,1001.94
2018-09-23T01:01:22.666Z,1001.94
2018-09-23T01:02:22.687Z,1001.88
2018-09-23T01:03:22.701Z,1001.91
2018-09-23T01:04:22.726Z,1001.92
2018-09-23T01:05:22.738Z,1001.87
2018-09-23T01:06:22.758Z,1001.89
2018-09-23T01:07:22.773Z,1001.88
2018-09-23T01:08:22.790Z,1001.87
2018-09-23T01:09:22.807Z,1001.91
2018-09-23T01:10:22.824Z,1001.90
2018-09-23T01:11:22.847Z,1001.99
2018-09-23T01:12:22.861Z,1001.99
2018-09-23T01:13:22.878Z,1002.04
2018-09-23T01:14:22.894Z,1001.99
2018-09-23T01:15:22.913Z,1002.00
2018-09-23T01:16:22.927Z,1002.01
2018-09-23T01:17:22.947Z,1002.05
2018-09-23T01:18:22.963Z,1002.04
2018-09-23T01:19:22.986Z,1002.05
2018-09-23T01:20:22.994Z,1002.02
2018-09-23T01:21:23.019Z,1001.98
2018-09-23T01:22:23.035Z,1002.02
2018-09-23T01:23:23.052Z,1002.00
2018-09-23T01:24:23.064Z,1002.00
2018-09-23T01:25:23.087Z,1001.96
2018-09-23T01:26:23.101Z,1001.97
2018-09-23T01:27:23.119Z,1001.92
2018-09-23T01:28:23.137Z,1001.93
2018-09-23T01:29:23.160Z,1001.92
2018-09-23T01:30:23.173Z,1001.90
2018-09-23T01:31:23.190Z,1001.86
2018-09-23T01:32:23.211Z,1001.79
2018-09-23T01:33:23.224Z,1001.80
2018-09-23T01:34:23.242Z,1001.80
2018-09-23T01:35:23.262Z,1001.76
2018-09-23T01:36:23.278Z,1001.70
2018-09-23T01:37:23.293Z,1001.70
2018-09-23T01:38:23.311Z,1001.65
2018-09-23T01:39:23.327Z,1001.63
2018-09-23T01:40:23.345Z,1001.61
2018-09-23T01:41:23.366Z,1001.60
2018-09-23T01:42:23.381Z,1001.63
2018-09-23T01:43:23.401Z,1001.60
2018-09-23T01:44:23.413Z,1001.65
2018-09-23T01:45:23.433Z,1001.63
2018-09-23T01:46:23.452Z,1001.59
2018-09-23T01:47:23.468Z,1001.60
2018-09-23T01:48:23.486Z,1001.62
2018-09-23T01:49:23.502Z,1001.59
2018-09-23T01:50:23.525Z,1001.61
2018-09-23T01:51:23.538Z,1001.61
2018-09-23T01:52:23.555Z,1001.57
2018-09-23T01:53:23.577Z,1001.55
2018-09-23T01:54:23.589Z,1001.55
2018-09-23T01:55:23.613Z,1001.53
2018-09-23T01:56:23.634Z,1001.54
2018-09-23T01:57:23.640Z,1001.53
2018-09-23T01:58:23.659Z,1001.52
2018-09-23T01:59:23.677Z,1001.56
2018-09-23T02:00:23.693Z,1001.54
2018-09-23T02:01:23.713Z,1001.56
2018-09-23T02:02:23.736Z,1001.51
2018-09-23T02:03:23.747Z,1001.52
2018-09-23T02:04:23.762Z,1001.54
2018-09-23T02:05:23.783Z,1001.48
2018-09-23T02:06:23.799Z,1001.44
2018-09-23T02:07:23.818Z,1001.47
2018-09-23T02:08:23.835Z,1001.41
2018-09-23T02:09:23.851Z,1001.42
2018-09-23T02:10:23.873Z,1001.42
2018-09-23T02:11:23.888Z,1001.46
2018-09-23T02:12:23.906Z,1001.45
2018-09-23T02:13:23.921Z,1001.42
2018-09-23T02:14:23.944Z,1001.42
2018-09-23T02:15:23.958Z,1001.41
2018-09-23T02:16:23.974Z,1001.36
2018-09-23T02:17:23.992Z,1001.28
2018-09-23T02:18:24.007Z,1001.26
2018-09-23T02:19:24.033Z,1001.23
2018-09-23T02:20:24.047Z,1001.23
2018-09-23T02:21:24.062Z,1001.20
2018-09-23T02:22:24.079Z,1001.17
2018-09-23T02:23:24.100Z,1001.13
2018-09-23T02:24:24.120Z,1001.14
2018-09-23T02:25:24.143Z,1001.11
2018-09-23T02:26:24.152Z,1001.13
2018-09-23T02:27:24.169Z,1001.13
2018-09-23T02:28:24.188Z,1001.17
2018-09-23T02:29:24.207Z,1001.15
2018-09-23T02:30:24.220Z,1001.16
2018-09-23T02:31:24.242Z,1001.17
2018-09-23T02:32:24.255Z,1001.19
2018-09-23T02:33:24.279Z,1001.16
2018-09-23T02:34:24.292Z,1001.21
2018-09-23T02:35:24.311Z,1001.18
2018-09-23T02:36:24.326Z,1001.12
2018-09-23T02:37:24.342Z,1001.08
2018-09-23T02:38:24.364Z,1001.14
2018-09-23T02:39:24.378Z,1001.13
2018-09-23T02:40:24.396Z,1001.06
2018-09-23T02:41:24.417Z,1001.09
2018-09-23T02:42:24.432Z,1001.10
2018-09-23T02:43:24.450Z,1001.07
2018-09-23T02:44:24.463Z,1001.04
2018-09-23T02:45:24.483Z,1001.03
2018-09-23T02:46:24.502Z,1000.99
2018-09-23T02:47:24.519Z,1000.98
2018-09-23T02:48:24.538Z,1001.00
2018-09-23T02:49:24.560Z,1001.03
2018-09-23T02:50:24.574Z,1001.00
2018-09-23T02:51:24.598Z,1001.03
2018-09-23T02:52:24.613Z,1000.99
2018-09-23T02:53:24.624Z,1000.97
2018-09-23T02:54:24.645Z,1001.01
2018-09-23T02:55:24.659Z,1000.97
2018-09-23T02:56:24.681Z,1000.92
2018-09-23T02:57:24.699Z,1000.93
2018-09-23T02:58:24.713Z,1000.95
2018-09-23T02:59:24.732Z,1000.90
2018-09-23T03:00:24.748Z,1000.88
2018-09-23T03:01:24.765Z,1000.84
2018-09-23T03:02:24.784Z,1000.79
2018-09-23T03:03:24.798Z,1000.78
2018-09-23T03:04:24.819Z,1000.76
2018-09-23T03:05:24.836Z,1000.78
2018-09-23T03:06:24.858Z,1000.70
2018-09-23T03:07:24.871Z,1000.71
2018-09-23T03:08:24.888Z,1000.69
2018-09-23T03:09:24.903Z,1000.62
2018-09-23T03:10:24.922Z,1000.62
2018-09-23T03:11:24.939Z,1000.57
2018-09-23T03:12:24.961Z,1000.54
2018-09-23T03:13:24.978Z,1000.61
2018-09-23T03:14:24.993Z,1000.55
2018-09-23T03:15:25.011Z,1000.58
2018-09-23T03:16:25.031Z,1000.58
2018-09-23T03:17:25.046Z,1000.56
2018-09-23T03:18:25.069Z,1000.60
2018-09-23T03:19:25.083Z,1000.58
2018-09-23T03:20:25.099Z,1000.56
2018-09-23T03:21:25.118Z,1000.54
2018-09-23T03:22:25.134Z,1000.50
2018-09-23T03:23:25.152Z,1000.50
2018-09-23T03:24:25.170Z,1000.49
2018-09-23T03:25:25.192Z,1000.51
2018-09-23T03:26:25.206Z,1000.52
2018-09-23T03:27:25.225Z,1000.50
2018-09-23T03:28:25.238Z,1000.51
2018-09-23T03:29:25.271Z,1000.48
2018-09-23T03:30:25.282Z,1000.48
2018-09-23T03:31:25.307Z,1000.48
2018-09-23T03:32:25.314Z,1000.46
2018-09-23T03:33:25.330Z,1000.46
2018-09-23T03:34:25.350Z,1000.40
2018-09-23T03:35:25.363Z,1000.36
2018-09-23T03:36:25.387Z,1000.36
2018-09-23T03:37:25.401Z,1000.34
2018-09-23T03:38:25.416Z,1000.33
2018-09-23T03:39:25.439Z,1000.29
2018-09-23T03:40:25.453Z,1000.26
2018-09-23T03:41:25.473Z,1000.24
2018-09-23T03:42:25.489Z,1000.28
2018-09-23T03:43:25.505Z,1000.22
2018-09-23T03:44:25.532Z,1000.25
2018-09-23T03:45:25.539Z,1000.22
2018-09-23T03:46:25.559Z,1000.20
2018-09-23T03:47:25.579Z,1000.24
2018-09-23T03:48:25.600Z,1000.19
2018-09-23T03:49:25.619Z,1000.18
2018-09-23T03:50:25.628Z,1000.15
2018-09-23T03:51:25.644Z,1000.13
2018-09-23T03:52:25.665Z,1000.14
2018-09-23T03:53:25.687Z,1000.15
2018-09-23T03:54:25.703Z,1000.18
2018-09-23T03:55:25.725Z,1000.16
2018-09-23T03:56:25.734Z,1000.14
2018-09-23T03:57:25.755Z,1000.19
2018-09-23T03:58:25.769Z,1000.20
2018-09-23T03:59:25.791Z,1000.20
2018-09-23T04:00:25.805Z,1000.14
2018-09-23T04:01:25.823Z,1000.15
2018-09-23T04:02:25.839Z,1000.14
2018-09-23T04:03:25.857Z,1000.15
2018-09-23T04:04:25.878Z,1000.16
2018-09-23T04:05:25.893Z,1000.16
2018-09-23T04:06:25.909Z,1000.16
2018-09-23T04:07:25.926Z,1000.16
2018-09-23T04:08:25.950Z,1000.10
2018-09-23T04:09:25.964Z,1000.12
2018-09-23T04:10:25.981Z,1000.06
2018-09-23T04:11:26.003Z,1000.06
2018-09-23T04:12:26.019Z,1000.01
2018-09-23T04:13:26.040Z,1000.03
2018-09-23T04:14:26.051Z,1000.06
2018-09-23T04:15:26.065Z,1000.04
2018-09-23T04:16:26.085Z,1000.03
2018-09-23T04:17:26.104Z,999.99
2018-09-23T04:18:26.125Z,999.94
2018-09-23T04:19:26.142Z,999.94
2018-09-23T04:20:26.154Z,999.91
2018-09-23T04:21:26.173Z,999.87
2018-09-23T04:22:26.195Z,999.88
2018-09-23T04:23:26.211Z,999.88
2018-09-23T04:24:26.224Z,999.93
2018-09-23T04:25:26.249Z,999.92
2018-09-23T04:26:26.264Z,999.90
2018-09-23T04:27:26.278Z,999.84
2018-09-23T04:28:26.302Z,999.80
2018-09-23T04:29:26.318Z,999.73
2018-09-23T04:30:26.333Z,999.72
2018-09-23T04:31:26.347Z,999.70
2018-09-23T04:32:26.370Z,999.69
2018-09-23T04:33:26.385Z,999.68
2018-09-23T04:34:26.402Z,999.63
2018-09-23T04:35:26.419Z,999.57
2018-09-23T04:36:26.442Z,999.52
2018-09-23T04:37:26.469Z,999.48
2018-09-23T04:38:26.472Z,999.49
2018-09-23T04:39:26.518Z,999.46
2018-09-23T04:40:26.504Z,999.41
2018-09-23T04:41:26.527Z,999.40
2018-09-23T04:42:26.551Z,999.38
2018-09-23T04:43:26.561Z,999.31
2018-09-23T04:44:26.579Z,999.27
2018-09-23T04:45:26.595Z,999.26
2018-09-23T04:46:26.613Z,999.18
2018-09-23T04:47:26.659Z,999.20
2018-09-23T04:48:26.649Z,999.17
2018-09-23T04:49:26.662Z,999.15
2018-09-23T04:50:26.707Z,999.15
2018-09-23T04:51:26.696Z,999.17
2018-09-23T04:52:26.716Z,999.13
2018-09-23T04:53:26.732Z,999.14
2018-09-23T04:54:26.752Z,999.13
2018-09-23T04:55:26.858Z,999.13
2018-09-23T04:56:26.790Z,999.16
2018-09-23T04:57:26.804Z,999.16
2018-09-23T04:58:26.822Z,999.18
2018-09-23T04:59:26.839Z,999.19
2018-09-23T05:00:26.854Z,999.21
2018-09-23T05:01:26.873Z,999.20
2018-09-23T05:02:26.890Z,999.20
2018-09-23T05:03:26.906Z,999.20
2018-09-23T05:04:26.926Z,999.21
2018-09-23T05:05:26.945Z,999.24
2018-09-23T05:06:26.966Z,999.23
2018-09-23T05:07:26.981Z,999.26
2018-09-23T05:08:26.997Z,999.23
2018-09-23T05:09:27.017Z,999.25
2018-09-23T05:10:27.034Z,999.29
2018-09-23T05:11:27.059Z,999.27
2018-09-23T05:12:27.065Z,999.30
2018-09-23T05:13:27.084Z,999.29
2018-09-23T05:14:27.103Z,999.33
2018-09-23T05:15:27.119Z,999.33
2018-09-23T05:16:27.142Z,999.38
2018-09-23T05:17:27.163Z,999.37
2018-09-23T05:18:27.176Z,999.35
2018-09-23T05:19:27.187Z,999.29
2018-09-23T05:20:27.208Z,999.29
2018-09-23T05:21:27.223Z,999.26
2018-09-23T05:22:27.243Z,999.21
2018-09-23T05:23:27.261Z,999.18
2018-09-23T05:24:27.278Z,999.17
2018-09-23T05:25:27.300Z,999.17
2018-09-23T05:26:27.316Z,999.18
2018-09-23T05:27:27.331Z,999.24
2018-09-23T05:28:27.352Z,999.29
2018-09-23T05:29:27.367Z,999.30
2018-09-23T05:30:27.385Z,999.30
2018-09-23T05:31:27.410Z,999.27
2018-09-23T05:32:27.425Z,999.26
2018-09-23T05:33:27.450Z,999.21
2018-09-23T05:34:27.455Z,999.13
2018-09-23T05:35:27.595Z,999.11
2018-09-23T05:36:27.493Z,999.07
2018-09-23T05:37:27.509Z,999.03
2018-09-23T05:38:27.525Z,998.98
2018-09-23T05:39:27.541Z,998.90
2018-09-23T05:40:27.561Z,998.90
2018-09-23T05:41:27.597Z,998.91
2018-09-23T05:42:27.600Z,998.91
2018-09-23T05:43:27.616Z,998.92
2018-09-23T05:44:27.628Z,998.95
2018-09-23T05:45:27.650Z,998.97
2018-09-23T05:46:27.680Z,998.97
2018-09-23T05:47:27.690Z,998.98
2018-09-23T05:48:27.703Z,999.02
2018-09-23T05:49:27.720Z,999.00
2018-09-23T05:50:27.742Z,998.96
2018-09-23T05:51:27.760Z,998.91
2018-09-23T05:52:27.778Z,998.90
2018-09-23T05:53:27.789Z,998.85
2018-09-23T05:54:27.809Z,998.80
2018-09-23T05:55:27.827Z,998.78
2018-09-23T05:56:27.843Z,998.74
2018-09-23T05:57:27.876Z,998.75
2018-09-23T05:58:27.881Z,998.77
2018-09-23T05:59:27.898Z,998.78
2018-09-23T06:00:27.917Z,998.74
2018-09-23T06:01:27.934Z,998.72
2018-09-23T06:02:27.949Z,998.76
2018-09-23T06:03:27.970Z,998.75
2018-09-23T06:04:27.983Z,998.76
2018-09-23T06:05:28.002Z,998.74
2018-09-23T06:06:28.023Z,998.75
2018-09-23T06:07:28.047Z,998.79
2018-09-23T06:08:28.057Z,998.82
2018-09-23T06:09:28.072Z,998.85
2018-09-23T06:10:28.096Z,998.90
2018-09-23T06:11:28.106Z,998.91
2018-09-23T06:12:28.126Z,998.97
2018-09-23T06:13:28.147Z,998.98
2018-09-23T06:14:28.162Z,998.99
2018-09-23T06:15:28.183Z,998.97
2018-09-23T06:16:28.200Z,998.96
2018-09-23T06:17:28.215Z,998.92
2018-09-23T06:18:28.312Z,998.94
2018-09-23T06:19:28.253Z,998.84
2018-09-23T06:20:28.267Z,998.85
2018-09-23T06:21:28.289Z,998.80
2018-09-23T06:22:28.302Z,998.80
2018-09-23T06:23:28.329Z,998.79
2018-09-23T06:24:28.337Z,998.82
2018-09-23T06:25:28.357Z,998.84
2018-09-23T06:26:28.373Z,998.85
2018-09-23T06:27:28.400Z,998.85
2018-09-23T06:28:28.418Z,998.81
2018-09-23T06:29:28.432Z,998.82
2018-09-23T06:30:28.445Z,998.84
2018-09-23T06:31:28.472Z,998.79
2018-09-23T06:32:28.533Z,998.75
2018-09-23T06:33:28.508Z,998.69
2018-09-23T06:34:28.520Z,998.65
2018-09-23T06:35:28.532Z,998.63
2018-09-23T06:36:28.570Z,998.59
2018-09-23T06:37:28.577Z,998.54
2018-09-23T06:38:28.598Z,998.50
2018-09-23T06:39:28.621Z,998.45
2018-09-23T06:40:28.630Z,998.40
2018-09-23T06:41:28.655Z,998.44
2018-09-23T06:42:28.658Z,998.43
2018-09-23T06:43:28.677Z,998.40
2018-09-23T06:44:28.698Z,998.40
2018-09-23T06:45:28.728Z,998.42
2018-09-23T06:46:28.731Z,998.37
2018-09-23T06:47:28.752Z,998.38
2018-09-23T06:48:28.764Z,998.37
2018-09-23T06:49:28.795Z,998.40
2018-09-23T06:50:28.808Z,998.43
2018-09-23T06:51:28.819Z,998.46
2018-09-23T06:52:28.842Z,998.44
2018-09-23T06:53:28.852Z,998.45
2018-09-23T06:54:28.878Z,998.48
2018-09-23T06:55:28.888Z,998.48
2018-09-23T06:56:28.914Z,998.50
2018-09-23T06:57:28.925Z,998.51
2018-09-23T06:58:28.945Z,998.51
2018-09-23T06:59:28.964Z,998.54
2018-09-23T07:00:28.976Z,998.63
2018-09-23T07:01:29.014Z,998.67
2018-09-23T07:02:29.013Z,998.61
2018-09-23T07:03:29.026Z,998.57
2018-09-23T07:04:29.110Z,998.53
2018-09-23T07:05:29.070Z,998.50
2018-09-23T07:06:29.101Z,998.48
2018-09-23T07:07:29.109Z,998.44
2018-09-23T07:08:29.125Z,998.46
2018-09-23T07:09:29.138Z,998.43
2018-09-23T07:10:29.205Z,998.41
2018-09-23T07:11:29.176Z,998.45
2018-09-23T07:12:29.193Z,998.43
2018-09-23T07:13:29.210Z,998.42
2018-09-23T07:14:29.228Z,998.39
2018-09-23T07:15:29.250Z,998.36
2018-09-23T07:16:29.263Z,998.40
2018-09-23T07:17:29.283Z,998.41
2018-09-23T07:18:29.302Z,998.39
2018-09-23T07:19:29.315Z,998.37
2018-09-23T07:20:29.332Z,998.40
2018-09-23T07:21:29.359Z,998.44
2018-09-23T07:22:29.371Z,998.44
2018-09-23T07:23:29.392Z,998.40
2018-09-23T07:24:29.404Z,998.47
2018-09-23T07:25:29.424Z,998.51
2018-09-23T07:26:29.443Z,998.51
2018-09-23T07:27:29.459Z,998.48
2018-09-23T07:28:29.480Z,998.50
2018-09-23T07:29:29.500Z,998.50
2018-09-23T07:30:29.523Z,998.48
2018-09-23T07:31:29.530Z,998.42
2018-09-23T07:32:29.552Z,998.44
2018-09-23T07:33:29.571Z,998.42
2018-09-23T07:34:29.585Z,998.44
2018-09-23T07:35:29.608Z,998.38
2018-09-23T07:36:29.620Z,998.42
2018-09-23T07:37:29.683Z,998.37
2018-09-23T07:38:29.656Z,998.35
2018-09-23T07:39:29.731Z,998.31
2018-09-23T07:40:29.695Z,998.35
2018-09-23T07:41:29.710Z,998.38
2018-09-23T07:42:29.729Z,998.36
2018-09-23T07:43:29.746Z,998.40
2018-09-23T07:44:29.771Z,998.41
2018-09-23T07:45:29.791Z,998.42
2018-09-23T07:46:29.807Z,998.42
2018-09-23T07:47:29.831Z,998.45
2018-09-23T07:48:29.836Z,998.44
2018-09-23T07:49:29.862Z,998.43
2018-09-23T07:50:29.874Z,998.39
2018-09-23T07:51:29.889Z,998.35
2018-09-23T07:52:29.909Z,998.29
2018-09-23T07:53:29.930Z,998.22
2018-09-23T07:54:29.944Z,998.20
2018-09-23T07:55:29.960Z,998.19
2018-09-23T07:56:30.062Z,998.20
2018-09-23T07:57:30.007Z,998.18
2018-09-23T07:58:30.017Z,998.17
2018-09-23T07:59:30.036Z,998.19
2018-09-23T08:00:30.054Z,998.14
2018-09-23T08:01:30.074Z,998.16
2018-09-23T08:02:30.090Z,998.11
2018-09-23T08:03:30.169Z,998.15
2018-09-23T08:04:30.129Z,998.12
2018-09-23T08:05:30.147Z,998.12
2018-09-23T08:06:30.161Z,998.12
2018-09-23T08:07:30.187Z,998.16
2018-09-23T08:08:30.198Z,998.20
2018-09-23T08:09:30.223Z,998.17
2018-09-23T08:10:30.239Z,998.17
2018-09-23T08:11:30.410Z,998.17
2018-09-23T08:12:30.369Z,998.15
2018-09-23T08:13:30.391Z,998.16
2018-09-23T08:14:30.657Z,998.17
2018-09-23T08:15:30.330Z,998.17
2018-09-23T08:16:30.348Z,998.19
2018-09-23T08:17:30.368Z,998.18
2018-09-23T08:18:30.381Z,998.15
2018-09-23T08:19:30.453Z,998.13
2018-09-23T08:20:30.629Z,998.12
2018-09-23T08:21:30.433Z,998.11
2018-09-23T08:22:30.458Z,998.00
2018-09-23T08:23:30.468Z,997.96
2018-09-23T08:24:30.501Z,997.96
2018-09-23T08:25:30.552Z,997.95
2018-09-23T08:26:30.630Z,997.89
2018-09-23T08:27:30.544Z,997.81
2018-09-23T08:28:30.558Z,997.78
2018-09-23T08:29:30.582Z,997.74
2018-09-23T08:30:30.596Z,997.69
2018-09-23T08:31:30.621Z,997.69
2018-09-23T08:32:30.638Z,997.69
2018-09-23T08:33:30.656Z,997.73
2018-09-23T08:34:30.670Z,997.74
2018-09-23T08:35:30.693Z,997.78
2018-09-23T08:36:30.708Z,997.85
2018-09-23T08:37:30.854Z,997.83
2018-09-23T08:38:30.753Z,997.88
2018-09-23T08:39:30.765Z,997.83
2018-09-23T08:40:30.793Z,997.85
2018-09-23T08:41:30.806Z,997.84
2018-09-23T08:42:30.821Z,997.82
2018-09-23T08:43:30.835Z,997.83
2018-09-23T08:44:30.858Z,997.82
2018-09-23T08:45:30.882Z,997.79
2018-09-23T08:46:30.895Z,997.78
2018-09-23T08:47:30.917Z,997.77
2018-09-23T08:48:30.933Z,997.71
2018-09-23T08:49:30.951Z,997.70
2018-09-23T08:50:30.975Z,997.72
2018-09-23T08:51:30.990Z,997.67
2018-09-23T08:52:31.023Z,997.63
2018-09-23T08:53:31.023Z,997.67
2018-09-23T08:54:31.041Z,997.62
2018-09-23T08:55:31.058Z,997.63
2018-09-23T08:56:31.081Z,997.64
2018-09-23T08:57:31.156Z,997.56
2018-09-23T08:58:31.120Z,997.58
2018-09-23T08:59:31.130Z,997.51
2018-09-23T09:00:31.150Z,997.47
2018-09-23T09:01:31.172Z,997.41
2018-09-23T09:02:31.196Z,997.36
2018-09-23T09:03:31.256Z,997.35
2018-09-23T09:04:31.225Z,997.35
2018-09-23T09:05:31.240Z,997.38
2018-09-23T09:06:31.263Z,997.37
2018-09-23T09:07:31.280Z,997.42
2018-09-23T09:08:31.335Z,997.40
2018-09-23T09:09:31.327Z,997.37
2018-09-23T09:10:31.334Z,997.38
2018-09-23T09:11:31.354Z,997.33
2018-09-23T09:12:31.374Z,997.33
2018-09-23T09:13:31.392Z,997.33
2018-09-23T09:14:31.412Z,997.33
2018-09-23T09:15:31.426Z,997.36
2018-09-23T09:16:31.446Z,997.35
2018-09-23T09:17:31.468Z,997.30
2018-09-23T09:18:31.587Z,997.27
2018-09-23T09:19:31.496Z,997.29
2018-09-23T09:20:31.520Z,997.21
2018-09-23T09:21:31.538Z,997.13
2018-09-23T09:22:31.547Z,997.08
2018-09-23T09:23:31.572Z,997.08
2018-09-23T09:24:31.590Z,997.06
2018-09-23T09:25:31.609Z,997.09
2018-09-23T09:26:31.624Z,997.06
2018-09-23T09:27:31.670Z,996.99
2018-09-23T09:28:31.662Z,996.97
2018-09-23T09:29:31.687Z,996.95
2018-09-23T09:30:31.702Z,996.91
2018-09-23T09:31:31.721Z,996.90
2018-09-23T09:32:31.739Z,996.90
2018-09-23T09:33:31.758Z,996.89
2018-09-23T09:34:31.773Z,996.84
2018-09-23T09:35:31.794Z,996.83
2018-09-23T09:36:31.809Z,996.79
2018-09-23T09:37:31.836Z,996.80
2018-09-23T09:38:31.876Z,996.77
2018-09-23T09:39:31.864Z,996.73
2018-09-23T09:40:31.892Z,996.70
2018-09-23T09:41:31.897Z,996.67
2018-09-23T09:42:31.917Z,996.67
2018-09-23T09:43:31.935Z,996.70
2018-09-23T09:44:31.963Z,996.68
2018-09-23T09:45:31.979Z,996.64
2018-09-23T09:46:31.991Z,996.62
2018-09-23T09:47:32.007Z,996.66
2018-09-23T09:48:32.033Z,996.62
2018-09-23T09:49:32.048Z,996.63
2018-09-23T09:50:32.061Z,996.62
2018-09-23T09:51:32.083Z,996.60
2018-09-23T09:52:32.099Z,996.55
2018-09-23T09:53:32.158Z,996.49
2018-09-23T09:54:32.137Z,996.46
2018-09-23T09:55:32.158Z,996.45
2018-09-23T09:56:32.175Z,996.39
2018-09-23T09:57:32.193Z,996.39
2018-09-23T09:58:32.226Z,996.37
2018-09-23T09:59:32.224Z,996.37
2018-09-23T10:00:32.240Z,996.34
2018-09-23T10:01:32.266Z,996.35
2018-09-23T10:02:32.282Z,996.30
2018-09-23T10:03:32.310Z,996.28
2018-09-23T10:04:32.318Z,996.29
2018-09-23T10:05:32.333Z,996.25
2018-09-23T10:06:32.355Z,996.24
2018-09-23T10:07:32.372Z,996.24
2018-09-23T10:08:32.387Z,996.21
2018-09-23T10:09:32.408Z,996.23
2018-09-23T10:10:32.427Z,996.14
2018-09-23T10:11:32.482Z,996.05
2018-09-23T10:12:32.461Z,996.04
2018-09-23T10:13:32.480Z,996.11
2018-09-23T10:14:32.497Z,996.14
2018-09-23T10:15:32.511Z,996.14
2018-09-23T10:16:32.530Z,996.09
2018-09-23T10:17:32.556Z,996.10
2018-09-23T10:18:32.574Z,996.05
2018-09-23T10:19:32.583Z,996.03
2018-09-23T10:20:32.606Z,995.99
2018-09-23T10:21:32.620Z,995.89
2018-09-23T10:22:32.699Z,995.82
2018-09-23T10:23:32.772Z,995.80
2018-09-23T10:24:32.687Z,995.76
2018-09-23T10:25:32.696Z,995.79
2018-09-23T10:26:32.719Z,995.71
2018-09-23T10:27:32.732Z,995.67
2018-09-23T10:28:32.750Z,995.65
2018-09-23T10:29:32.772Z,995.62
2018-09-23T10:30:32.786Z,995.63
2018-09-23T10:31:32.810Z,995.61
2018-09-23T10:32:32.828Z,995.55
2018-09-23T10:33:32.857Z,995.57
2018-09-23T10:34:32.858Z,995.56
2018-09-23T10:35:32.874Z,995.46
2018-09-23T10:36:32.895Z,995.41
2018-09-23T10:37:32.982Z,995.30
2018-09-23T10:38:32.931Z,995.32
2018-09-23T10:39:32.954Z,995.33
2018-09-23T10:40:32.965Z,995.36
2018-09-23T10:41:32.990Z,995.41
2018-09-23T10:42:33.001Z,995.45
2018-09-23T10:43:33.036Z,995.39
2018-09-23T10:44:33.043Z,995.37
2018-09-23T10:45:33.068Z,995.34
2018-09-23T10:46:33.077Z,995.25
2018-09-23T10:47:33.089Z,995.20
2018-09-23T10:48:33.109Z,995.23
2018-09-23T10:49:33.134Z,995.20
2018-09-23T10:50:33.158Z,995.13
2018-09-23T10:51:33.163Z,995.08
2018-09-23T10:52:33.185Z,995.04
2018-09-23T10:53:33.219Z,995.05
2018-09-23T10:54:33.217Z,995.10
2018-09-23T10:55:33.267Z,995.09
2018-09-23T10:56:33.255Z,995.04
2018-09-23T10:57:33.273Z,994.99
2018-09-23T10:58:33.313Z,994.95
2018-09-23T10:59:33.399Z,994.84
2018-09-23T11:00:33.324Z,994.75
2018-09-23T11:01:33.343Z,994.65
2018-09-23T11:02:33.359Z,994.62
2018-09-23T11:03:33.428Z,994.60
2018-09-23T11:04:33.400Z,994.51
2018-09-23T11:05:33.417Z,994.47
2018-09-23T11:06:33.447Z,994.42
2018-09-23T11:07:33.509Z,994.44
2018-09-23T11:08:33.474Z,994.30
2018-09-23T11:09:33.484Z,994.29
2018-09-23T11:10:33.504Z,994.37
2018-09-23T11:11:33.522Z,994.31
2018-09-23T11:12:33.536Z,994.39
2018-09-23T11:13:33.561Z,994.39
2018-09-23T11:14:33.576Z,994.48
2018-09-23T11:15:33.596Z,994.66
2018-09-23T11:16:33.609Z,994.69
2018-09-23T11:17:33.668Z,994.71
2018-09-23T11:18:33.643Z,994.71
2018-09-23T11:19:33.661Z,994.69
2018-09-23T11:20:33.684Z,994.76
2018-09-23T11:21:33.697Z,994.80
2018-09-23T11:22:33.712Z,994.86
2018-09-23T11:23:33.770Z,994.83
2018-09-23T11:24:33.756Z,994.84
2018-09-23T11:25:33.770Z,994.85
2018-09-23T11:26:33.791Z,994.77
2018-09-23T11:27:33.802Z,994.79
2018-09-23T11:28:33.825Z,994.70
2018-09-23T11:29:33.839Z,994.68
2018-09-23T11:30:33.860Z,994.61
2018-09-23T11:31:33.874Z,994.56
2018-09-23T11:32:33.891Z,994.58
2018-09-23T11:33:33.927Z,994.62
2018-09-23T11:34:33.942Z,994.58
2018-09-23T11:35:33.946Z,994.51
2018-09-23T11:36:33.966Z,994.49
2018-09-23T11:37:33.988Z,994.41
2018-09-23T11:38:34.003Z,994.43
2018-09-23T11:39:34.015Z,994.40
2018-09-23T11:40:34.032Z,994.43
2018-09-23T11:41:34.053Z,994.47
2018-09-23T11:42:34.071Z,994.53
2018-09-23T11:43:34.090Z,994.58
2018-09-23T11:44:34.105Z,994.70
2018-09-23T11:45:34.123Z,994.75
2018-09-23T11:46:34.142Z,994.77
2018-09-23T11:47:34.154Z,994.87
2018-09-23T11:48:34.176Z,994.92
2018-09-23T11:49:34.198Z,994.95
2018-09-23T11:50:34.219Z,994.93
2018-09-23T11:51:34.235Z,995.00
2018-09-23T11:52:34.245Z,994.99
2018-09-23T11:53:34.274Z,994.95
2018-09-23T11:54:34.279Z,994.90
2018-09-23T11:55:34.301Z,994.88
2018-09-23T11:56:34.314Z,994.74
2018-09-23T11:57:34.340Z,994.76
2018-09-23T11:58:34.356Z,994.69
2018-09-23T11:59:34.376Z,994.67
2018-09-23T12:00:34.382Z,994.62
2018-09-23T12:01:34.401Z,994.57
2018-09-23T12:02:34.418Z,994.52
2018-09-23T12:03:34.438Z,994.57
2018-09-23T12:04:34.542Z,994.50
2018-09-23T12:05:34.467Z,994.52
2018-09-23T12:06:34.485Z,994.49
2018-09-23T12:07:34.507Z,994.46
2018-09-23T12:08:34.520Z,994.40
2018-09-23T12:09:34.543Z,994.34
2018-09-23T12:10:34.568Z,994.29
2018-09-23T12:11:34.585Z,994.20
2018-09-23T12:12:34.595Z,994.17
2018-09-23T12:13:34.612Z,994.14
2018-09-23T12:14:34.639Z,994.18
2018-09-23T12:15:34.665Z,994.10
2018-09-23T12:16:34.669Z,994.10
2018-09-23T12:17:34.680Z,994.01
2018-09-23T12:18:34.699Z,993.97
2018-09-23T12:19:34.718Z,993.90
2018-09-23T12:20:34.738Z,993.83